Time;durP1;ratioP1;P1;durP2;ratioP2;P2;SDS_P1;SDS_P2;PMS_P1;PMS_P2;Temp;Humidity;BMP_temperature;BMP_pressure;BME280_temperature;BME280_humidity;BME280_pressure;Samples;Min_cycle;Max_cycle;Signal;HPM_P1;HPM_P2
2023/08/06 00:00:17;;;;;;;5.53;3.95;;;16.10;99.90;;;;;;5012962;28;20175;-49
2023/08/06 00:02:42;;;;;;;4.40;3.42;;;16.10;99.90;;;;;;5012618;28;20175;-48
2023/08/06 00:05:08;;;;;;;6.93;3.75;;;16.10;99.90;;;;;;5012658;28;20200;-49
2023/08/06 00:07:33;;;;;;;4.70;3.33;;;16.10;99.90;;;;;;5012776;28;20715;-48
2023/08/06 00:09:59;;;;;;;3.63;3.10;;;16.10;99.90;;;;;;5012787;28;20168;-48
2023/08/06 00:12:25;;;;;;;4.25;3.10;;;16.00;99.90;;;;;;5012637;28;20615;-48
2023/08/06 00:14:53;;;;;;;6.80;3.67;;;16.10;99.90;;;;;;5013189;28;20172;-49
2023/08/06 00:17:19;;;;;;;3.38;3.08;;;16.00;99.90;;;;;;5013183;28;20160;-49
2023/08/06 00:19:44;;;;;;;5.03;3.05;;;16.10;99.90;;;;;;5012695;28;20658;-48
2023/08/06 00:22:10;;;;;;;4.57;2.72;;;16.10;99.90;;;;;;5022085;28;20186;-48
2023/08/06 00:24:36;;;;;;;4.18;3.25;;;16.10;99.90;;;;;;5032526;28;20221;-48
2023/08/06 00:27:02;;;;;;;3.60;2.88;;;16.10;99.90;;;;;;5032364;28;20218;-48
2023/08/06 00:29:27;;;;;;;5.25;2.97;;;16.00;99.90;;;;;;5032333;28;20266;-48
2023/08/06 00:31:53;;;;;;;5.30;3.78;;;16.00;99.90;;;;;;5032121;28;20171;-48
2023/08/06 00:34:18;;;;;;;6.07;3.47;;;15.90;99.90;;;;;;5032571;28;20246;-49
2023/08/06 00:36:44;;;;;;;5.15;3.60;;;15.90;99.90;;;;;;5031411;28;20178;-49
2023/08/06 00:39:09;;;;;;;6.63;3.90;;;15.90;99.90;;;;;;5031942;28;20172;-48
2023/08/06 00:41:35;;;;;;;3.38;3.08;;;16.00;99.90;;;;;;5032006;28;20175;-48
2023/08/06 00:44:00;;;;;;;6.43;4.00;;;15.90;99.90;;;;;;5031975;28;20213;-49
2023/08/06 00:46:27;;;;;;;5.47;3.30;;;15.90;99.90;;;;;;5032004;28;20171;-49
2023/08/06 00:48:52;;;;;;;8.20;3.83;;;15.90;99.90;;;;;;5031863;28;20183;-49
2023/08/06 00:51:19;;;;;;;5.63;3.80;;;15.80;99.90;;;;;;5032013;28;20167;-49
2023/08/06 00:53:46;;;;;;;5.72;3.13;;;15.80;99.90;;;;;;5031808;28;20175;-49
2023/08/06 00:56:12;;;;;;;8.63;3.83;;;15.90;99.90;;;;;;5031807;28;20168;-49
2023/08/06 00:58:39;;;;;;;4.57;3.30;;;15.90;99.90;;;;;;5031756;28;20163;-48
2023/08/06 01:01:04;;;;;;;7.75;4.20;;;15.90;99.90;;;;;;5017531;28;20183;-49
2023/08/06 01:03:30;;;;;;;9.48;3.03;;;15.80;99.90;;;;;;5011931;28;20204;-48
2023/08/06 01:05:56;;;;;;;5.03;3.30;;;15.80;99.90;;;;;;5010659;28;20183;-49
2023/08/06 01:08:37;;;;;;;4.28;3.10;;;15.80;99.90;;;;;;5013571;28;20200;-48
2023/08/06 01:11:21;;;;;;;4.38;3.10;;;15.80;99.90;;;;;;5011823;28;20178;-48
2023/08/06 01:13:49;;;;;;;9.02;3.15;;;15.90;99.90;;;;;;5011799;28;20215;-49
2023/08/06 01:16:18;;;;;;;4.70;2.95;;;15.90;99.90;;;;;;5012070;28;20182;-48
2023/08/06 01:18:46;;;;;;;5.07;2.90;;;15.90;99.90;;;;;;5012037;28;20234;-48
2023/08/06 01:21:13;;;;;;;6.10;3.15;;;15.80;99.90;;;;;;5013163;28;20171;-48
2023/08/06 01:23:39;;;;;;;4.63;2.80;;;15.80;99.90;;;;;;5031091;28;20290;-48
2023/08/06 01:26:25;;;;;;;9.15;3.22;;;16.00;99.90;;;;;;5031340;28;20250;-49
2023/08/06 01:29:07;;;;;;;7.68;3.20;;;15.90;99.90;;;;;;5031955;28;20163;-48
2023/08/06 01:31:37;;;;;;;5.65;2.80;;;15.90;99.90;;;;;;5028463;28;20175;-48
2023/08/06 01:34:05;;;;;;;5.28;2.47;;;15.90;99.90;;;;;;5031293;28;20267;-48
2023/08/06 01:36:32;;;;;;;5.20;3.10;;;15.90;99.90;;;;;;5031574;28;20175;-48
2023/08/06 01:38:57;;;;;;;4.38;2.55;;;16.00;99.90;;;;;;5030079;28;20197;-48
2023/08/06 01:41:23;;;;;;;4.70;2.70;;;15.90;99.90;;;;;;5029974;28;20176;-49
2023/08/06 01:43:49;;;;;;;5.00;2.83;;;15.90;99.90;;;;;;5031664;28;20231;-48
2023/08/06 01:46:14;;;;;;;3.30;2.78;;;15.90;99.90;;;;;;5031216;28;20179;-48
2023/08/06 01:48:40;;;;;;;5.20;2.28;;;15.80;99.90;;;;;;5032630;28;20167;-48
2023/08/06 01:51:06;;;;;;;3.92;2.10;;;15.80;99.90;;;;;;5034498;28;20178;-48
2023/08/06 01:53:32;;;;;;;4.68;2.08;;;15.90;99.90;;;;;;5015639;28;20250;-48
2023/08/06 01:55:58;;;;;;;3.22;1.85;;;15.80;99.90;;;;;;5015415;28;20164;-48
2023/08/06 01:58:23;;;;;;;2.80;2.10;;;15.90;99.90;;;;;;5015382;28;20176;-48
2023/08/06 02:00:49;;;;;;;4.55;2.35;;;15.90;99.90;;;;;;5015711;28;20180;-49
2023/08/06 02:03:15;;;;;;;3.58;2.13;;;15.80;99.90;;;;;;5015182;28;20190;-48
2023/08/06 02:05:40;;;;;;;4.60;2.28;;;15.80;99.90;;;;;;5015167;28;20183;-48
2023/08/06 02:08:06;;;;;;;5.80;2.50;;;15.90;99.90;;;;;;5013866;28;20576;-48
2023/08/06 02:10:32;;;;;;;3.85;2.40;;;15.80;99.90;;;;;;5015102;28;20168;-48
2023/08/06 02:12:57;;;;;;;6.35;2.30;;;15.80;99.90;;;;;;5014947;28;20595;-48
2023/08/06 02:15:23;;;;;;;4.47;2.13;;;15.80;99.90;;;;;;5014992;28;20213;-49
2023/08/06 02:17:48;;;;;;;4.80;2.50;;;15.80;99.90;;;;;;5015412;28;20160;-46
2023/08/06 02:20:14;;;;;;;3.55;2.00;;;15.80;99.90;;;;;;5014810;28;20172;-46
2023/08/06 02:22:39;;;;;;;3.55;2.10;;;15.70;99.90;;;;;;5028111;28;20172;-47
2023/08/06 02:25:05;;;;;;;4.18;2.53;;;15.70;99.90;;;;;;5034528;28;20211;-46
2023/08/06 02:27:31;;;;;;;2.40;2.20;;;15.60;99.90;;;;;;5034564;28;20175;-48
2023/08/06 02:29:56;;;;;;;5.32;2.10;;;15.60;99.90;;;;;;5034543;28;20171;-48
2023/08/06 02:32:22;;;;;;;3.45;2.17;;;15.70;99.90;;;;;;5034440;28;20168;-49
2023/08/06 02:34:47;;;;;;;2.47;1.77;;;15.70;99.90;;;;;;5034935;28;20167;-48
2023/08/06 02:37:13;;;;;;;4.70;2.30;;;15.80;99.90;;;;;;5034373;28;20172;-49
2023/08/06 02:39:41;;;;;;;3.95;2.30;;;15.80;99.90;;;;;;5034313;28;20159;-49
2023/08/06 02:42:07;;;;;;;3.10;2.25;;;15.70;99.90;;;;;;5034308;28;20532;-49
2023/08/06 02:44:33;;;;;;;5.63;2.17;;;15.70;99.90;;;;;;5034384;28;20203;-48
2023/08/06 02:46:59;;;;;;;4.05;2.10;;;15.70;99.90;;;;;;5034189;28;20523;-48
2023/08/06 02:49:25;;;;;;;5.43;2.55;;;15.80;99.90;;;;;;5034452;28;20183;-48
2023/08/06 02:51:50;;;;;;;2.15;1.90;;;15.80;99.90;;;;;;5025378;28;20238;-48
2023/08/06 02:54:16;;;;;;;5.63;2.13;;;15.80;99.90;;;;;;5014010;28;20184;-48
2023/08/06 02:56:45;;;;;;;4.40;2.47;;;15.80;99.90;;;;;;5014274;28;20169;-48
2023/08/06 02:59:11;;;;;;;3.30;2.55;;;15.80;99.90;;;;;;5014447;28;20226;-48
2023/08/06 03:01:37;;;;;;;5.72;2.30;;;15.70;99.90;;;;;;5013280;28;20168;-49
2023/08/06 03:04:03;;;;;;;3.33;2.30;;;15.80;99.90;;;;;;5013569;28;20215;-48
2023/08/06 03:06:28;;;;;;;2.58;2.38;;;15.80;99.90;;;;;;5014087;28;20172;-48
2023/08/06 03:08:54;;;;;;;3.28;2.30;;;15.90;99.90;;;;;;5014044;28;20501;-48
2023/08/06 03:11:19;;;;;;;6.40;2.53;;;15.80;99.90;;;;;;5014228;28;20179;-48
2023/08/06 03:13:45;;;;;;;5.00;2.35;;;15.80;99.90;;;;;;5013816;28;20178;-48
2023/08/06 03:16:10;;;;;;;6.72;2.58;;;15.80;99.90;;;;;;5013925;28;20179;-48
2023/08/06 03:18:36;;;;;;;6.53;2.30;;;15.80;99.90;;;;;;5013790;28;20653;-48
2023/08/06 03:21:02;;;;;;;3.03;2.50;;;15.80;99.90;;;;;;5015487;28;20648;-49
2023/08/06 03:23:27;;;;;;;5.43;2.67;;;15.90;99.90;;;;;;5033698;28;20198;-48
2023/08/06 03:25:53;;;;;;;2.50;2.30;;;15.90;99.90;;;;;;5033510;28;20193;-48
2023/08/06 03:28:18;;;;;;;4.70;2.35;;;15.90;99.90;;;;;;5033888;28;20178;-48
2023/08/06 03:30:45;;;;;;;2.75;2.30;;;15.80;99.90;;;;;;5033601;28;20182;-48
2023/08/06 03:33:10;;;;;;;6.30;2.28;;;15.80;99.90;;;;;;5033373;28;20166;-49
2023/08/06 03:35:36;;;;;;;5.10;2.55;;;15.80;99.90;;;;;;5033344;28;20171;-49
2023/08/06 03:38:02;;;;;;;2.05;1.85;;;15.80;99.90;;;;;;5033476;28;20226;-48
2023/08/06 03:40:27;;;;;;;3.47;2.00;;;15.70;99.90;;;;;;5033542;28;20175;-48
2023/08/06 03:42:53;;;;;;;3.70;1.80;;;15.70;99.90;;;;;;5033143;28;20164;-49
2023/08/06 03:45:18;;;;;;;2.53;1.73;;;15.80;99.90;;;;;;5033486;28;20218;-48
2023/08/06 03:47:44;;;;;;;2.28;1.65;;;15.80;99.90;;;;;;5033152;28;20172;-48
2023/08/06 03:50:10;;;;;;;3.47;2.45;;;15.60;99.90;;;;;;5033094;28;20171;-49
2023/08/06 03:52:35;;;;;;;4.97;2.28;;;15.80;99.90;;;;;;5015649;28;20172;-48
2023/08/06 03:55:01;;;;;;;2.38;1.98;;;15.90;99.90;;;;;;5013121;28;20646;-48
2023/08/06 03:57:26;;;;;;;2.83;1.65;;;15.90;99.90;;;;;;5013113;28;20190;-48
2023/08/06 03:59:52;;;;;;;3.47;1.80;;;15.80;99.90;;;;;;5013087;28;20168;-49
2023/08/06 04:02:17;;;;;;;2.22;1.60;;;15.80;99.90;;;;;;5013366;28;20628;-48
2023/08/06 04:04:43;;;;;;;1.70;1.60;;;15.70;99.90;;;;;;5012922;28;20212;-48
2023/08/06 04:07:08;;;;;;;3.08;1.70;;;15.90;99.90;;;;;;5012880;28;20168;-49
2023/08/06 04:09:50;;;;;;;4.03;1.48;;;15.70;99.90;;;;;;5012926;28;20164;-48
2023/08/06 04:12:16;;;;;;;4.50;1.80;;;15.80;99.90;;;;;;5012619;28;20557;-48
2023/08/06 04:14:41;;;;;;;5.63;1.90;;;15.80;99.90;;;;;;5012757;28;20170;-48
2023/08/06 04:17:07;;;;;;;3.20;1.63;;;15.90;99.90;;;;;;5013039;28;20168;-48
2023/08/06 04:19:32;;;;;;;2.83;1.98;;;15.80;99.90;;;;;;5012715;28;20191;-49
2023/08/06 04:21:58;;;;;;;3.60;2.10;;;15.80;99.90;;;;;;5024549;28;20214;-48
2023/08/06 04:24:23;;;;;;;3.38;2.47;;;15.70;99.90;;;;;;5032079;28;20234;-48
2023/08/06 04:26:49;;;;;;;4.13;2.40;;;15.70;99.90;;;;;;5032727;28;20171;-48
2023/08/06 04:29:14;;;;;;;4.97;2.30;;;15.70;99.90;;;;;;5032342;28;20230;-48
2023/08/06 04:31:40;;;;;;;2.67;2.33;;;15.70;99.90;;;;;;5032375;28;20217;-49
2023/08/06 04:34:05;;;;;;;4.68;2.70;;;15.80;99.90;;;;;;5032376;28;20171;-49
2023/08/06 04:36:31;;;;;;;4.30;2.72;;;15.60;99.90;;;;;;5032177;28;20163;-48
2023/08/06 04:38:57;;;;;;;6.05;2.42;;;15.70;99.90;;;;;;5032146;28;20210;-48
2023/08/06 04:41:22;;;;;;;3.22;2.60;;;15.70;99.90;;;;;;5032176;28;20627;-49
2023/08/06 04:43:48;;;;;;;9.13;3.10;;;15.70;99.90;;;;;;5032400;28;20559;-48
2023/08/06 04:46:13;;;;;;;5.40;2.80;;;15.70;99.90;;;;;;5031979;28;20175;-48
2023/08/06 04:48:39;;;;;;;7.80;2.85;;;15.60;99.90;;;;;;5031914;28;20170;-48
2023/08/06 04:51:04;;;;;;;8.68;2.97;;;15.70;99.90;;;;;;5027590;28;20179;-48
2023/08/06 04:53:30;;;;;;;6.35;2.97;;;15.80;99.90;;;;;;5012177;28;20191;-49
2023/08/06 04:55:55;;;;;;;7.32;2.97;;;15.80;99.90;;;;;;5012197;28;20171;-49
2023/08/06 04:58:21;;;;;;;5.75;3.58;;;15.80;99.90;;;;;;5012053;28;20539;-49
2023/08/06 05:00:46;;;;;;;5.60;3.42;;;15.70;99.90;;;;;;5012555;28;20703;-48
2023/08/06 05:03:12;;;;;;;4.78;3.28;;;15.80;99.90;;;;;;5011929;28;20164;-48
2023/08/06 05:05:40;;;;;;;6.38;3.60;;;15.80;99.90;;;;;;5011924;28;20517;-48
2023/08/06 05:08:05;;;;;;;3.78;3.40;;;15.70;99.90;;;;;;5012180;28;20176;-48
2023/08/06 05:10:31;;;;;;;5.65;3.20;;;15.80;99.90;;;;;;5011842;28;20172;-48
2023/08/06 05:12:57;;;;;;;6.50;3.83;;;15.90;99.90;;;;;;5011788;28;20216;-48
2023/08/06 05:15:25;;;;;;;4.72;3.45;;;15.80;99.90;;;;;;5012096;28;20172;-49
2023/08/06 05:17:50;;;;;;;5.97;3.33;;;15.90;99.90;;;;;;5012223;28;20656;-48
2023/08/06 05:20:17;;;;;;;7.75;3.50;;;15.90;99.90;;;;;;5012093;28;20211;-48
2023/08/06 05:22:43;;;;;;;4.68;3.13;;;15.80;99.90;;;;;;5031114;28;20710;-48
2023/08/06 05:25:08;;;;;;;7.15;3.25;;;15.70;99.90;;;;;;5031280;28;20678;-48
2023/08/06 05:27:34;;;;;;;4.00;3.60;;;15.60;99.90;;;;;;5031603;28;20163;-48
2023/08/06 05:30:00;;;;;;;4.07;3.55;;;15.90;99.90;;;;;;5031376;28;20174;-48
2023/08/06 05:32:25;;;;;;;3.90;3.25;;;15.70;99.90;;;;;;5031566;28;20179;-48
2023/08/06 05:34:51;;;;;;;4.65;4.25;;;15.80;99.90;;;;;;5031302;28;20163;-49
2023/08/06 05:37:16;;;;;;;5.50;4.18;;;15.80;99.90;;;;;;5031701;28;20589;-49
2023/08/06 05:39:42;;;;;;;4.93;3.78;;;15.90;99.90;;;;;;5031244;28;20170;-48
2023/08/06 05:42:07;;;;;;;6.82;3.28;;;16.10;99.90;;;;;;5031239;28;20163;-48
2023/08/06 05:44:33;;;;;;;3.90;3.08;;;16.10;99.90;;;;;;5031453;28;20207;-48
2023/08/06 05:46:59;;;;;;;3.17;2.72;;;16.10;99.90;;;;;;5031344;28;20214;-48
2023/08/06 05:49:24;;;;;;;3.83;2.95;;;16.20;99.90;;;;;;5029912;28;20262;-48
2023/08/06 05:51:50;;;;;;;3.63;3.33;;;16.10;99.90;;;;;;5030948;28;20182;-47
2023/08/06 05:54:15;;;;;;;4.65;3.20;;;16.00;99.90;;;;;;5031370;28;20179;-46
2023/08/06 05:56:41;;;;;;;4.30;3.05;;;16.10;99.90;;;;;;5031140;28;20201;-46
2023/08/06 05:59:06;;;;;;;4.57;2.92;;;16.00;99.90;;;;;;5031116;28;20237;-46
2023/08/06 06:01:32;;;;;;;4.50;2.88;;;16.00;99.90;;;;;;5031344;28;20206;-46
2023/08/06 06:03:57;;;;;;;4.32;2.95;;;16.10;99.90;;;;;;5031003;28;20211;-46
2023/08/06 06:06:23;;;;;;;2.72;2.53;;;16.20;99.90;;;;;;5031073;28;20164;-46
2023/08/06 06:08:49;;;;;;;2.40;2.20;;;16.30;99.90;;;;;;5031419;28;20175;-46
2023/08/06 06:11:15;;;;;;;5.70;3.13;;;16.40;99.90;;;;;;5030800;28;20190;-46
2023/08/06 06:13:40;;;;;;;3.20;2.30;;;16.30;99.90;;;;;;5031247;28;20171;-46
2023/08/06 06:16:06;;;;;;;4.13;2.95;;;16.40;99.90;;;;;;5030940;28;20599;-46
2023/08/06 06:18:31;;;;;;;4.07;3.67;;;16.30;99.90;;;;;;5030946;28;20500;-47
2023/08/06 06:20:57;;;;;;;3.35;3.00;;;16.20;99.90;;;;;;5025414;28;20180;-46
2023/08/06 06:23:22;;;;;;;2.90;2.60;;;16.30;99.90;;;;;;5011126;28;20160;-46
2023/08/06 06:25:51;;;;;;;2.80;2.60;;;16.30;99.90;;;;;;5011471;28;20186;-46
2023/08/06 06:28:17;;;;;;;3.78;2.45;;;16.60;99.90;;;;;;5011450;28;20208;-47
2023/08/06 06:30:43;;;;;;;2.58;2.00;;;16.50;99.90;;;;;;5011035;28;20194;-46
2023/08/06 06:33:08;;;;;;;2.88;2.17;;;16.70;99.90;;;;;;5011340;28;20200;-47
2023/08/06 06:35:34;;;;;;;4.55;2.40;;;16.70;99.90;;;;;;5012130;28;20168;-48
2023/08/06 06:38:00;;;;;;;1.70;1.60;;;16.70;99.90;;;;;;5014652;28;20616;-47
2023/08/06 06:40:26;;;;;;;2.00;1.80;;;16.60;99.90;;;;;;5014530;28;20164;-48
2023/08/06 06:42:51;;;;;;;2.83;2.10;;;16.60;99.90;;;;;;5014477;28;20202;-47
2023/08/06 06:45:17;;;;;;;2.30;2.10;;;16.70;99.90;;;;;;5014786;28;20210;-48
2023/08/06 06:47:42;;;;;;;2.10;1.90;;;16.70;99.90;;;;;;5014334;28;20186;-49
2023/08/06 06:50:08;;;;;;;2.17;1.98;;;16.70;99.90;;;;;;5014481;28;20226;-48
2023/08/06 06:52:34;;;;;;;1.90;1.80;;;16.80;99.90;;;;;;5034154;28;20229;-48
2023/08/06 06:55:00;;;;;;;2.92;1.63;;;16.60;99.90;;;;;;5033595;28;20173;-49
2023/08/06 06:57:25;;;;;;;2.42;1.38;;;16.70;99.90;;;;;;5033706;28;20186;-49
2023/08/06 06:59:51;;;;;;;1.60;1.23;;;16.60;99.90;;;;;;5034106;28;20163;-47
2023/08/06 07:02:16;;;;;;;1.88;1.40;;;16.50;99.90;;;;;;5034378;28;20171;-47
2023/08/06 07:04:42;;;;;;;1.92;1.45;;;16.70;99.90;;;;;;5033198;28;20203;-47
2023/08/06 07:07:07;;;;;;;1.80;1.70;;;16.80;99.90;;;;;;5033462;28;20194;-49
2023/08/06 07:09:33;;;;;;;1.67;1.58;;;16.80;99.90;;;;;;5033295;28;20171;-50
2023/08/06 07:11:58;;;;;;;1.30;1.20;;;16.70;99.90;;;;;;5033196;28;20210;-50
2023/08/06 07:14:29;;;;;;;3.05;1.20;;;16.70;99.90;;;;;;5033332;28;20318;-47
2023/08/06 07:16:54;;;;;;;1.00;0.90;;;16.90;99.90;;;;;;5033710;28;20202;-48
2023/08/06 07:19:20;;;;;;;1.27;1.17;;;16.90;99.90;;;;;;5033725;28;20167;-48
2023/08/06 07:21:46;;;;;;;0.77;0.77;;;16.80;99.90;;;;;;5020169;28;20251;-49
2023/08/06 07:24:11;;;;;;;1.15;0.90;;;17.00;99.90;;;;;;5030466;28;20199;-49
2023/08/06 07:26:37;;;;;;;1.13;0.93;;;17.00;99.90;;;;;;5033158;28;20258;-48
2023/08/06 07:29:03;;;;;;;1.38;1.17;;;16.90;99.90;;;;;;5033245;28;20168;-48
2023/08/06 07:31:28;;;;;;;0.90;0.90;;;17.00;99.90;;;;;;5033228;28;20167;-48
2023/08/06 07:33:54;;;;;;;0.80;0.80;;;16.80;99.90;;;;;;5033376;28;20730;-47
2023/08/06 07:36:20;;;;;;;2.88;2.67;;;16.80;99.90;;;;;;5033753;28;20173;-49
2023/08/06 07:38:45;;;;;;;1.20;1.10;;;16.70;99.90;;;;;;5033272;28;20199;-50
2023/08/06 07:41:11;;;;;;;1.00;0.90;;;17.10;99.90;;;;;;5032799;28;20174;-47
2023/08/06 07:43:37;;;;;;;0.73;0.73;;;17.00;99.90;;;;;;5032186;28;20735;-49
2023/08/06 07:46:02;;;;;;;2.28;0.80;;;17.10;99.90;;;;;;5032306;28;20163;-49
2023/08/06 07:48:28;;;;;;;2.08;0.90;;;17.20;99.90;;;;;;5032190;28;20171;-47
2023/08/06 07:50:54;;;;;;;2.05;0.65;;;17.20;99.90;;;;;;5032287;28;20224;-47
2023/08/06 07:53:21;;;;;;;0.82;0.82;;;17.20;99.90;;;;;;5032398;28;20171;-47
2023/08/06 07:55:53;;;;;;;3.13;0.90;;;17.10;99.90;;;;;;5032812;28;20182;-46
2023/08/06 07:58:24;;;;;;;0.68;0.68;;;17.10;99.90;;;;;;5030250;28;20175;-48
2023/08/06 08:00:49;;;;;;;1.00;0.77;;;17.10;99.90;;;;;;5032761;28;20171;-47
2023/08/06 08:03:16;;;;;;;0.75;0.60;;;17.20;99.90;;;;;;5032969;28;20550;-47
2023/08/06 08:05:44;;;;;;;0.70;0.70;;;17.20;99.90;;;;;;5017701;28;20196;-48
2023/08/06 08:08:10;;;;;;;0.82;0.82;;;17.20;99.90;;;;;;5012533;28;20180;-47
2023/08/06 08:10:37;;;;;;;2.97;1.13;;;17.20;99.90;;;;;;5012529;28;20183;-47
2023/08/06 08:13:04;;;;;;;1.25;0.90;;;17.30;99.90;;;;;;5012034;28;20220;-47
2023/08/06 08:15:30;;;;;;;1.45;1.20;;;17.40;99.90;;;;;;5012771;28;20291;-47
2023/08/06 08:17:56;;;;;;;0.63;0.63;;;17.50;99.90;;;;;;5012446;28;20214;-47
2023/08/06 08:20:22;;;;;;;0.88;0.88;;;17.40;99.90;;;;;;5014115;28;20562;-47
2023/08/06 08:22:47;;;;;;;1.00;0.98;;;17.50;99.90;;;;;;5032544;28;20178;-47
2023/08/06 08:25:13;;;;;;;1.02;0.95;;;17.70;99.90;;;;;;5031833;28;20203;-47
2023/08/06 08:27:39;;;;;;;1.00;1.00;;;17.80;99.90;;;;;;5031426;28;20218;-47
2023/08/06 08:30:05;;;;;;;1.48;1.20;;;17.90;99.90;;;;;;5032027;28;20199;-47
2023/08/06 08:32:31;;;;;;;1.77;1.40;;;17.90;99.90;;;;;;5031669;28;20246;-47
2023/08/06 08:34:57;;;;;;;3.22;2.20;;;17.90;99.90;;;;;;5031942;28;20584;-47
2023/08/06 08:37:23;;;;;;;2.22;2.00;;;17.80;99.90;;;;;;5031858;28;20170;-48
2023/08/06 08:39:49;;;;;;;3.83;2.38;;;17.70;99.90;;;;;;5032344;28;20220;-49
2023/08/06 08:42:15;;;;;;;2.42;2.22;;;17.50;99.90;;;;;;5031176;28;20259;-52
2023/08/06 08:44:42;;;;;;;3.78;2.42;;;17.50;99.90;;;;;;5031787;28;20257;-48
2023/08/06 08:47:10;;;;;;;2.83;2.20;;;17.40;99.90;;;;;;5031312;28;20194;-49
2023/08/06 08:49:37;;;;;;;2.88;2.20;;;17.30;99.90;;;;;;5031703;28;20252;-48
2023/08/06 08:52:07;;;;;;;2.63;2.28;;;17.50;99.90;;;;;;5029573;28;20175;-48
2023/08/06 08:54:34;;;;;;;2.40;2.20;;;17.50;99.90;;;;;;5031604;28;20642;-48
2023/08/06 08:57:00;;;;;;;2.58;2.38;;;17.60;99.90;;;;;;5031049;28;20194;-48
2023/08/06 08:59:26;;;;;;;2.35;2.25;;;17.70;99.90;;;;;;5030969;28;20179;-48
2023/08/06 09:01:53;;;;;;;3.45;2.60;;;17.70;99.90;;;;;;5031503;28;20217;-48
2023/08/06 09:04:19;;;;;;;3.35;2.30;;;17.70;99.90;;;;;;5031798;28;20203;-48
2023/08/06 09:06:49;;;;;;;2.80;2.53;;;17.70;99.90;;;;;;5031848;28;20652;-48
2023/08/06 09:09:21;;;;;;;3.90;2.70;;;17.70;99.90;;;;;;5031703;28;20168;-48
2023/08/06 09:11:49;;;;;;;2.88;2.67;;;17.90;99.90;;;;;;5031314;28;20211;-47
2023/08/06 09:14:15;;;;;;;4.95;3.50;;;17.90;99.90;;;;;;5031595;28;20179;-47
2023/08/06 09:16:40;;;;;;;3.28;2.80;;;17.80;99.90;;;;;;5031282;28;20627;-48
2023/08/06 09:19:10;;;;;;;2.78;2.40;;;17.70;99.90;;;;;;5031273;28;20167;-47
2023/08/06 09:21:40;;;;;;;3.13;2.55;;;17.90;99.90;;;;;;5017054;28;20210;-48
2023/08/06 09:24:12;;;;;;;4.10;3.45;;;18.10;99.90;;;;;;5011504;28;20215;-46
2023/08/06 09:26:40;;;;;;;3.03;2.60;;;17.70;99.90;;;;;;5010658;28;20168;-46
2023/08/06 09:29:07;;;;;;;3.22;2.40;;;17.50;99.90;;;;;;5016362;28;20539;-45
2023/08/06 09:31:51;;;;;;;2.88;2.60;;;17.20;99.90;;;;;;5031050;28;20167;-46
2023/08/06 09:34:19;;;;;;;2.38;1.75;;;17.10;99.90;;;;;;5031447;28;20731;-46
2023/08/06 09:37:03;;;;;;;2.47;1.10;;;17.00;99.90;;;;;;5030819;28;20225;-46
2023/08/06 09:39:30;;;;;;;3.28;1.45;;;17.10;99.90;;;;;;5030705;28;20175;-47
2023/08/06 09:41:57;;;;;;;1.88;1.30;;;17.00;99.90;;;;;;5030950;28;20167;-45
2023/08/06 09:44:26;;;;;;;1.23;1.02;;;16.80;99.90;;;;;;5030873;28;20574;-46
2023/08/06 09:46:54;;;;;;;2.25;1.13;;;17.00;99.90;;;;;;5030693;28;20176;-46
2023/08/06 09:49:28;;;;;;;1.20;1.10;;;17.00;99.90;;;;;;5030764;28;20163;-46
2023/08/06 09:51:59;;;;;;;2.58;0.95;;;16.90;99.90;;;;;;5014569;28;20197;-46
2023/08/06 09:54:26;;;;;;;4.40;0.75;;;16.70;99.90;;;;;;5010602;28;20570;-45
2023/08/06 09:56:56;;;;;;;2.42;0.90;;;16.60;99.90;;;;;;5011437;28;20167;-48
2023/08/06 09:59:25;;;;;;;2.42;0.82;;;16.50;99.90;;;;;;5011586;28;20173;-47
2023/08/06 10:01:51;;;;;;;0.75;0.55;;;16.40;99.90;;;;;;5027717;28;20221;-46
2023/08/06 10:04:17;;;;;;;3.55;0.98;;;16.40;99.90;;;;;;5029867;28;20223;-48
2023/08/06 10:06:47;;;;;;;1.20;0.70;;;16.10;99.90;;;;;;5029317;28;20656;-47
2023/08/06 10:09:13;;;;;;;0.80;0.80;;;15.80;99.90;;;;;;5030131;28;20217;-52
2023/08/06 10:11:39;;;;;;;0.93;0.93;;;15.70;99.90;;;;;;5033001;28;20211;-47
2023/08/06 10:14:21;;;;;;;1.25;0.90;;;15.80;99.90;;;;;;5033397;28;20171;-47
2023/08/06 10:16:48;;;;;;;0.88;0.88;;;15.70;99.90;;;;;;5033651;28;20580;-47
2023/08/06 10:19:16;;;;;;;0.52;0.52;;;15.80;99.90;;;;;;5033060;28;20192;-47
2023/08/06 10:22:02;;;;;;;2.35;0.80;;;15.80;99.90;;;;;;5032137;28;20622;-47
2023/08/06 10:24:27;;;;;;;4.30;1.10;;;15.60;99.90;;;;;;5033062;28;20203;-50
2023/08/06 10:26:58;;;;;;;0.98;0.88;;;15.60;99.90;;;;;;5032975;28;20168;-48
2023/08/06 10:29:37;;;;;;;1.35;1.10;;;15.50;99.90;;;;;;5032156;28;20519;-53
2023/08/06 10:32:04;;;;;;;2.53;1.40;;;15.40;99.90;;;;;;5031352;28;20182;-47
2023/08/06 10:34:58;;;;;;;2.28;1.33;;;15.20;99.90;;;;;;5030891;28;20190;-47
2023/08/06 10:37:34;;;;;;;1.42;1.33;;;15.30;99.90;;;;;;5023588;28;20240;-47
2023/08/06 10:40:00;;;;;;;1.88;1.55;;;15.30;99.90;;;;;;5031858;28;20197;-48
2023/08/06 10:42:29;;;;;;;5.43;1.73;;;15.10;99.90;;;;;;5032275;28;20171;-47
2023/08/06 10:45:18;;;;;;;2.35;1.50;;;15.20;99.90;;;;;;5031797;28;20222;-47
2023/08/06 10:47:44;;;;;;;2.90;2.20;;;15.00;99.90;;;;;;5031432;28;20647;-47
2023/08/06 10:50:17;;;;;;;3.38;2.33;;;15.10;99.90;;;;;;5028346;28;20227;-47
2023/08/06 10:52:47;;;;;;;1.83;1.42;;;15.00;99.90;;;;;;5013095;28;20199;-47
2023/08/06 10:55:13;;;;;;;2.47;2.05;;;14.90;99.90;;;;;;5017992;28;20179;-47
2023/08/06 10:57:39;;;;;;;2.90;1.65;;;14.90;99.90;;;;;;5031354;28;20543;-47
2023/08/06 11:00:06;;;;;;;2.85;1.55;;;15.00;99.90;;;;;;5032361;28;20190;-47
2023/08/06 11:02:36;;;;;;;3.42;1.73;;;15.10;99.90;;;;;;5031262;28;20253;-47
2023/08/06 11:05:06;;;;;;;4.30;1.67;;;15.10;99.90;;;;;;5050779;28;20598;-47
2023/08/06 11:07:31;;;;;;;3.67;2.08;;;15.20;99.90;;;;;;5047669;28;20176;-47
2023/08/06 11:10:02;;;;;;;4.05;1.92;;;15.10;99.90;;;;;;5038866;28;20539;-47
2023/08/06 11:12:28;;;;;;;9.85;2.28;;;15.30;99.90;;;;;;5030082;28;20219;-47
2023/08/06 11:14:53;;;;;;;4.10;2.03;;;15.30;99.90;;;;;;5032059;28;20238;-48
2023/08/06 11:17:19;;;;;;;4.45;2.38;;;15.50;99.90;;;;;;5030743;28;20207;-47
2023/08/06 11:19:45;;;;;;;4.88;2.65;;;15.60;99.90;;;;;;5032226;28;20179;-47
2023/08/06 11:22:10;;;;;;;3.58;2.22;;;15.60;99.90;;;;;;5031303;28;20178;-49
2023/08/06 11:24:37;;;;;;;5.15;2.08;;;15.70;99.90;;;;;;5031802;28;20294;-48
2023/08/06 11:27:11;;;;;;;4.88;2.10;;;15.90;99.90;;;;;;5031811;28;20579;-50
2023/08/06 11:29:38;;;;;;;7.00;2.65;;;15.90;99.90;;;;;;5029598;28;20183;-53
2023/08/06 11:32:05;;;;;;;2.42;1.48;;;16.10;99.90;;;;;;5031536;28;20662;-48
2023/08/06 11:34:30;;;;;;;6.85;2.15;;;16.10;99.90;;;;;;5031962;28;20183;-49
2023/08/06 11:36:57;;;;;;;4.70;1.95;;;16.20;99.90;;;;;;5031616;28;20190;-51
2023/08/06 11:39:23;;;;;;;2.67;1.60;;;16.30;99.90;;;;;;5031530;28;20172;-50
2023/08/06 11:41:48;;;;;;;4.50;1.50;;;16.40;99.90;;;;;;5031833;28;20185;-51
2023/08/06 11:44:14;;;;;;;2.88;1.40;;;16.30;99.90;;;;;;5031502;28;20293;-46
2023/08/06 11:46:55;;;;;;;1.63;1.35;;;16.30;99.90;;;;;;5031169;28;20228;-50
2023/08/06 11:49:37;;;;;;;3.03;1.58;;;16.60;99.90;;;;;;5031573;28;20175;-52
2023/08/06 11:52:12;;;;;;;3.47;1.88;;;16.60;99.90;;;;;;5031290;28;20156;-48
2023/08/06 11:54:38;;;;;;;3.10;1.33;;;16.80;99.90;;;;;;5031372;28;20186;-47
2023/08/06 11:57:06;;;;;;;4.80;1.77;;;16.60;99.90;;;;;;5031312;28;20206;-52
2023/08/06 11:59:31;;;;;;;2.80;1.77;;;16.60;99.90;;;;;;5017020;28;20176;-51
2023/08/06 12:01:57;;;;;;;2.10;1.50;;;16.70;99.90;;;;;;5010835;28;20190;-52
2023/08/06 12:04:22;;;;;;;3.75;1.52;;;16.60;99.90;;;;;;5011210;28;20211;-52
2023/08/06 12:06:48;;;;;;;4.50;1.60;;;16.40;99.90;;;;;;5011359;28;20259;-50
2023/08/06 12:09:13;;;;;;;4.00;1.33;;;16.50;99.90;;;;;;5011164;28;20274;-52
2023/08/06 12:11:39;;;;;;;2.88;1.70;;;16.50;99.90;;;;;;5010592;28;20879;-50
2023/08/06 12:14:04;;;;;;;2.60;1.55;;;16.30;99.90;;;;;;5011076;28;20172;-51
2023/08/06 12:16:30;;;;;;;5.13;1.75;;;16.20;99.90;;;;;;5010750;28;20191;-52
2023/08/06 12:18:56;;;;;;;5.38;1.63;;;16.00;99.90;;;;;;5010885;28;20353;-52
2023/08/06 12:21:21;;;;;;;5.28;1.70;;;16.00;99.90;;;;;;5010815;28;20202;-52
2023/08/06 12:23:47;;;;;;;3.13;1.38;;;16.00;99.90;;;;;;5011063;28;20291;-52
2023/08/06 12:26:12;;;;;;;5.25;1.67;;;15.80;99.90;;;;;;5010837;28;20193;-45
2023/08/06 12:28:38;;;;;;;3.85;1.67;;;15.70;99.90;;;;;;5017168;28;20186;-46
2023/08/06 12:31:04;;;;;;;3.03;2.13;;;16.00;99.90;;;;;;5030261;28;20628;-47
2023/08/06 12:33:29;;;;;;;4.63;1.70;;;16.10;99.90;;;;;;5029350;28;20172;-51
2023/08/06 12:35:55;;;;;;;3.58;1.98;;;16.10;99.90;;;;;;5030399;28;20532;-52
2023/08/06 12:38:21;;;;;;;4.13;1.90;;;16.30;99.90;;;;;;5030431;28;20189;-52
2023/08/06 12:40:46;;;;;;;3.38;2.20;;;16.30;99.90;;;;;;5030828;28;20249;-51
2023/08/06 12:43:12;;;;;;;3.78;2.03;;;16.20;99.90;;;;;;5030408;28;20598;-49
2023/08/06 12:45:37;;;;;;;6.13;2.00;;;16.40;99.90;;;;;;5029874;28;20211;-47